sensor_id;sensor_type;location;lat;lon;timestamp;pressure;altitude;pressure_sealevel;temperature;humidity
75039;BME280;63609;49.992;14.512;2023-03-01T00:01:40;99167.69;;;-2.19;51.27
75039;BME280;63609;49.992;14.512;2023-03-01T00:04:07;99170.41;;;-2.22;51.75
75039;BME280;63609;49.992;14.512;2023-03-01T00:06:35;99156.56;;;-2.27;50.60
75039;BME280;63609;49.992;14.512;2023-03-01T00:09:02;99160.13;;;-2.30;50.91
75039;BME280;63609;49.992;14.512;2023-03-01T00:11:33;99150.56;;;-2.31;50.63
75039;BME280;63609;49.992;14.512;2023-03-01T00:14:01;99157.94;;;-2.44;50.31
75039;BME280;63609;49.992;14.512;2023-03-01T00:16:31;99151.94;;;-2.47;51.88
75039;BME280;63609;49.992;14.512;2023-03-01T00:19:00;99157.66;;;-2.35;51.63
75039;BME280;63609;49.992;14.512;2023-03-01T00:21:27;99171.34;;;-2.26;51.50
75039;BME280;63609;49.992;14.512;2023-03-01T00:23:55;99159.69;;;-2.44;51.75
75039;BME280;63609;49.992;14.512;2023-03-01T00:26:24;99157.84;;;-2.41;51.33
75039;BME280;63609;49.992;14.512;2023-03-01T00:28:52;99167.22;;;-2.34;51.38
75039;BME280;63609;49.992;14.512;2023-03-01T00:31:21;99164.66;;;-2.35;50.69
75039;BME280;63609;49.992;14.512;2023-03-01T00:33:52;99151.22;;;-2.52;49.88
75039;BME280;63609;49.992;14.512;2023-03-01T00:36:20;99150.16;;;-2.47;50.81
75039;BME280;63609;49.992;14.512;2023-03-01T00:38:47;99158.81;;;-2.45;50.29
75039;BME280;63609;49.992;14.512;2023-03-01T00:41:17;99143.66;;;-2.63;49.70
75039;BME280;63609;49.992;14.512;2023-03-01T00:43:44;99144.41;;;-2.59;49.98
75039;BME280;63609;49.992;14.512;2023-03-01T00:46:17;99149.59;;;-2.58;50.77
75039;BME280;63609;49.992;14.512;2023-03-01T00:48:44;99142.75;;;-2.62;50.47
75039;BME280;63609;49.992;14.512;2023-03-01T00:51:21;99145.25;;;-2.59;50.47
75039;BME280;63609;49.992;14.512;2023-03-01T00:53:52;99140.78;;;-2.54;50.58
75039;BME280;63609;49.992;14.512;2023-03-01T00:56:21;99143.88;;;-2.71;50.20
75039;BME280;63609;49.992;14.512;2023-03-01T00:58:48;99133.28;;;-2.99;51.45
75039;BME280;63609;49.992;14.512;2023-03-01T01:01:21;99140.59;;;-2.79;50.18
75039;BME280;63609;49.992;14.512;2023-03-01T01:03:53;99148.19;;;-2.70;51.07
75039;BME280;63609;49.992;14.512;2023-03-01T01:06:23;99137.28;;;-2.84;50.10
75039;BME280;63609;49.992;14.512;2023-03-01T01:08:51;99134.16;;;-2.98;51.37
75039;BME280;63609;49.992;14.512;2023-03-01T01:11:19;99123.72;;;-2.98;51.21
75039;BME280;63609;49.992;14.512;2023-03-01T01:13:50;99123.56;;;-2.94;52.21
75039;BME280;63609;49.992;14.512;2023-03-01T01:16:19;99125.16;;;-2.86;50.64
75039;BME280;63609;49.992;14.512;2023-03-01T01:18:47;99116.50;;;-2.90;51.35
75039;BME280;63609;49.992;14.512;2023-03-01T01:21:16;99121.78;;;-2.91;50.67
75039;BME280;63609;49.992;14.512;2023-03-01T01:23:44;99107.38;;;-3.06;50.23
75039;BME280;63609;49.992;14.512;2023-03-01T01:26:20;99111.88;;;-3.11;51.70
75039;BME280;63609;49.992;14.512;2023-03-01T01:28:49;99103.03;;;-3.06;50.97
75039;BME280;63609;49.992;14.512;2023-03-01T01:31:17;99094.53;;;-3.14;51.00
75039;BME280;63609;49.992;14.512;2023-03-01T01:33:45;99091.16;;;-3.17;50.44
75039;BME280;63609;49.992;14.512;2023-03-01T01:36:13;99102.38;;;-3.14;51.39
75039;BME280;63609;49.992;14.512;2023-03-01T01:38:40;99104.22;;;-3.17;51.30
75039;BME280;63609;49.992;14.512;2023-03-01T01:41:10;99094.03;;;-3.28;50.33
75039;BME280;63609;49.992;14.512;2023-03-01T01:43:41;99101.00;;;-3.29;51.12
75039;BME280;63609;49.992;14.512;2023-03-01T01:46:25;99098.94;;;-3.16;51.66
75039;BME280;63609;49.992;14.512;2023-03-01T01:49:07;99093.00;;;-3.22;52.32
75039;BME280;63609;49.992;14.512;2023-03-01T01:51:40;99096.50;;;-3.23;52.12
75039;BME280;63609;49.992;14.512;2023-03-01T01:54:12;99093.56;;;-3.10;53.25
75039;BME280;63609;49.992;14.512;2023-03-01T01:56:44;99088.59;;;-3.19;53.12
75039;BME280;63609;49.992;14.512;2023-03-01T01:59:13;99088.00;;;-3.30;54.47
75039;BME280;63609;49.992;14.512;2023-03-01T02:01:40;99092.06;;;-3.18;53.37
75039;BME280;63609;49.992;14.512;2023-03-01T02:04:07;99087.88;;;-3.26;52.28
75039;BME280;63609;49.992;14.512;2023-03-01T02:06:46;99086.78;;;-3.17;52.77
75039;BME280;63609;49.992;14.512;2023-03-01T02:09:19;99086.06;;;-3.23;54.22
75039;BME280;63609;49.992;14.512;2023-03-01T02:11:47;99094.00;;;-3.27;53.04
75039;BME280;63609;49.992;14.512;2023-03-01T02:14:16;99097.47;;;-3.26;53.16
75039;BME280;63609;49.992;14.512;2023-03-01T02:16:43;99089.31;;;-3.14;53.66
75039;BME280;63609;49.992;14.512;2023-03-01T02:19:18;99087.47;;;-3.10;52.47
75039;BME280;63609;49.992;14.512;2023-03-01T02:22:16;99084.00;;;-3.11;51.60
75039;BME280;63609;49.992;14.512;2023-03-01T02:27:36;99070.66;;;-3.33;51.88
75039;BME280;63609;49.992;14.512;2023-03-01T02:30:05;99073.09;;;-3.27;53.82
75039;BME280;63609;49.992;14.512;2023-03-01T02:32:34;99074.69;;;-3.21;52.16
75039;BME280;63609;49.992;14.512;2023-03-01T02:35:02;99071.13;;;-3.17;51.91
75039;BME280;63609;49.992;14.512;2023-03-01T02:37:35;99075.78;;;-3.30;51.84
75039;BME280;63609;49.992;14.512;2023-03-01T02:40:06;99079.91;;;-3.21;52.00
75039;BME280;63609;49.992;14.512;2023-03-01T02:42:52;99081.78;;;-3.26;52.66
75039;BME280;63609;49.992;14.512;2023-03-01T02:45:22;99076.44;;;-3.21;52.20
75039;BME280;63609;49.992;14.512;2023-03-01T02:47:49;99080.16;;;-3.30;52.91
75039;BME280;63609;49.992;14.512;2023-03-01T02:55:24;99076.03;;;-3.39;52.71
75039;BME280;63609;49.992;14.512;2023-03-01T02:57:50;99070.34;;;-3.54;53.10
75039;BME280;63609;49.992;14.512;2023-03-01T03:00:26;99073.72;;;-3.49;52.70
75039;BME280;63609;49.992;14.512;2023-03-01T03:02:55;99068.25;;;-3.40;52.85
75039;BME280;63609;49.992;14.512;2023-03-01T03:05:26;99063.84;;;-3.38;53.31
75039;BME280;63609;49.992;14.512;2023-03-01T03:07:57;99064.75;;;-3.39;52.40
75039;BME280;63609;49.992;14.512;2023-03-01T03:10:28;99059.72;;;-3.47;53.39
75039;BME280;63609;49.992;14.512;2023-03-01T03:12:58;99065.78;;;-3.45;53.22
75039;BME280;63609;49.992;14.512;2023-03-01T03:15:26;99066.66;;;-3.46;53.70
75039;BME280;63609;49.992;14.512;2023-03-01T03:17:56;99056.22;;;-3.46;52.76
75039;BME280;63609;49.992;14.512;2023-03-01T03:20:26;99062.19;;;-3.41;52.75
75039;BME280;63609;49.992;14.512;2023-03-01T03:22:59;99067.34;;;-3.39;52.00
75039;BME280;63609;49.992;14.512;2023-03-01T03:25:28;99058.59;;;-3.37;52.09
75039;BME280;63609;49.992;14.512;2023-03-01T03:27:56;99066.63;;;-3.44;53.30
75039;BME280;63609;49.992;14.512;2023-03-01T03:30:30;99052.66;;;-3.43;52.03
75039;BME280;63609;49.992;14.512;2023-03-01T03:33:02;99053.38;;;-3.37;52.54
75039;BME280;63609;49.992;14.512;2023-03-01T03:35:34;99053.56;;;-3.44;52.33
75039;BME280;63609;49.992;14.512;2023-03-01T03:38:06;99048.50;;;-3.50;52.61
75039;BME280;63609;49.992;14.512;2023-03-01T03:40:38;99052.13;;;-3.56;52.77
75039;BME280;63609;49.992;14.512;2023-03-01T03:43:07;99048.38;;;-3.46;52.44
75039;BME280;63609;49.992;14.512;2023-03-01T03:45:36;99051.22;;;-3.55;52.60
75039;BME280;63609;49.992;14.512;2023-03-01T03:48:04;99057.22;;;-3.50;52.47
75039;BME280;63609;49.992;14.512;2023-03-01T03:50:32;99054.94;;;-3.64;52.79
75039;BME280;63609;49.992;14.512;2023-03-01T03:53:06;99050.03;;;-3.76;54.01
75039;BME280;63609;49.992;14.512;2023-03-01T03:55:33;99050.44;;;-3.59;53.95
75039;BME280;63609;49.992;14.512;2023-03-01T03:58:02;99026.78;;;-3.87;54.57
75039;BME280;63609;49.992;14.512;2023-03-01T04:00:35;99039.25;;;-3.98;55.42
75039;BME280;63609;49.992;14.512;2023-03-01T04:03:03;99042.63;;;-3.59;53.58
75039;BME280;63609;49.992;14.512;2023-03-01T04:05:30;99053.09;;;-3.60;52.93
75039;BME280;63609;49.992;14.512;2023-03-01T04:07:57;99041.03;;;-3.64;53.88
75039;BME280;63609;49.992;14.512;2023-03-01T04:10:43;99037.56;;;-3.65;53.09
75039;BME280;63609;49.992;14.512;2023-03-01T04:13:12;99050.03;;;-3.76;53.87
75039;BME280;63609;49.992;14.512;2023-03-01T04:15:39;99052.34;;;-3.65;54.02
75039;BME280;63609;49.992;14.512;2023-03-01T04:18:08;99055.13;;;-3.71;52.69
75039;BME280;63609;49.992;14.512;2023-03-01T04:20:35;99048.41;;;-3.80;52.40
75039;BME280;63609;49.992;14.512;2023-03-01T04:23:11;99047.31;;;-3.71;52.72
75039;BME280;63609;49.992;14.512;2023-03-01T04:25:50;99046.19;;;-3.63;52.60
75039;BME280;63609;49.992;14.512;2023-03-01T04:28:26;99040.53;;;-3.78;53.35
75039;BME280;63609;49.992;14.512;2023-03-01T04:30:55;99035.94;;;-3.69;53.12
75039;BME280;63609;49.992;14.512;2023-03-01T04:33:23;99031.53;;;-3.67;53.65
75039;BME280;63609;49.992;14.512;2023-03-01T04:35:50;99036.81;;;-3.70;54.25
75039;BME280;63609;49.992;14.512;2023-03-01T04:38:18;99040.72;;;-3.53;54.61
75039;BME280;63609;49.992;14.512;2023-03-01T04:40:45;99041.78;;;-3.61;52.85
75039;BME280;63609;49.992;14.512;2023-03-01T04:43:12;99050.47;;;-3.60;52.27
75039;BME280;63609;49.992;14.512;2023-03-01T04:45:43;99050.94;;;-3.77;51.42
75039;BME280;63609;49.992;14.512;2023-03-01T04:48:10;99051.22;;;-3.89;52.39
75039;BME280;63609;49.992;14.512;2023-03-01T04:50:37;99049.00;;;-3.70;53.45
75039;BME280;63609;49.992;14.512;2023-03-01T04:53:06;99048.84;;;-3.64;52.10
75039;BME280;63609;49.992;14.512;2023-03-01T04:55:33;99047.31;;;-3.71;53.12
75039;BME280;63609;49.992;14.512;2023-03-01T04:58:00;99050.03;;;-3.76;52.63
75039;BME280;63609;49.992;14.512;2023-03-01T05:00:29;99054.31;;;-3.73;53.31
75039;BME280;63609;49.992;14.512;2023-03-01T05:02:59;99045.47;;;-3.68;52.47
75039;BME280;63609;49.992;14.512;2023-03-01T05:05:33;99047.47;;;-3.77;52.32
75039;BME280;63609;49.992;14.512;2023-03-01T05:08:04;99057.28;;;-3.89;52.00
75039;BME280;63609;49.992;14.512;2023-03-01T05:10:33;99060.00;;;-3.93;51.97
75039;BME280;63609;49.992;14.512;2023-03-01T05:13:05;99051.31;;;-3.94;51.81
75039;BME280;63609;49.992;14.512;2023-03-01T05:15:33;99048.16;;;-4.06;52.52
75039;BME280;63609;49.992;14.512;2023-03-01T05:18:00;99048.13;;;-4.05;52.02
75039;BME280;63609;49.992;14.512;2023-03-01T05:20:29;99041.19;;;-4.06;52.67
75039;BME280;63609;49.992;14.512;2023-03-01T05:22:58;99045.72;;;-4.12;52.70
75039;BME280;63609;49.992;14.512;2023-03-01T05:25:28;99042.75;;;-3.99;53.31
75039;BME280;63609;49.992;14.512;2023-03-01T05:28:02;99038.81;;;-3.79;53.19
75039;BME280;63609;49.992;14.512;2023-03-01T05:30:36;99038.31;;;-3.95;52.26
75039;BME280;63609;49.992;14.512;2023-03-01T05:33:06;99042.00;;;-4.04;54.02
75039;BME280;63609;49.992;14.512;2023-03-01T05:35:41;99037.97;;;-4.15;53.08
75039;BME280;63609;49.992;14.512;2023-03-01T05:38:12;99040.56;;;-4.15;52.99
75039;BME280;63609;49.992;14.512;2023-03-01T05:40:43;99036.94;;;-4.10;52.52
75039;BME280;63609;49.992;14.512;2023-03-01T05:43:15;99037.44;;;-3.94;53.08
75039;BME280;63609;49.992;14.512;2023-03-01T05:45:43;99030.72;;;-4.04;52.57
75039;BME280;63609;49.992;14.512;2023-03-01T05:48:11;99023.66;;;-4.36;54.94
75039;BME280;63609;49.992;14.512;2023-03-01T05:50:41;99025.47;;;-4.40;56.08
75039;BME280;63609;49.992;14.512;2023-03-01T05:55:39;99025.88;;;-4.58;56.35
75039;BME280;63609;49.992;14.512;2023-03-01T05:58:13;99035.41;;;-4.57;55.05
75039;BME280;63609;49.992;14.512;2023-03-01T06:00:45;99036.03;;;-4.44;55.06
75039;BME280;63609;49.992;14.512;2023-03-01T06:03:15;99033.28;;;-4.38;53.20
75039;BME280;63609;49.992;14.512;2023-03-01T06:05:48;99019.16;;;-4.30;53.10
75039;BME280;63609;49.992;14.512;2023-03-01T06:08:18;99025.81;;;-4.16;53.50
75039;BME280;63609;49.992;14.512;2023-03-01T06:10:46;99024.16;;;-4.21;52.80
75039;BME280;63609;49.992;14.512;2023-03-01T06:13:14;99026.47;;;-4.08;52.55
75039;BME280;63609;49.992;14.512;2023-03-01T06:15:42;99027.16;;;-4.00;53.36
75039;BME280;63609;49.992;14.512;2023-03-01T06:18:12;99022.31;;;-4.15;55.52
75039;BME280;63609;49.992;14.512;2023-03-01T06:20:39;99035.81;;;-4.00;53.23
75039;BME280;63609;49.992;14.512;2023-03-01T06:23:06;99029.78;;;-4.02;52.93
75039;BME280;63609;49.992;14.512;2023-03-01T06:25:36;99033.25;;;-4.01;53.09
75039;BME280;63609;49.992;14.512;2023-03-01T06:28:04;99036.84;;;-4.05;53.19
75039;BME280;63609;49.992;14.512;2023-03-01T06:30:32;99039.91;;;-3.90;53.93
75039;BME280;63609;49.992;14.512;2023-03-01T06:33:04;99039.91;;;-3.90;55.75
75039;BME280;63609;49.992;14.512;2023-03-01T06:35:32;99039.47;;;-3.71;53.57
75039;BME280;63609;49.992;14.512;2023-03-01T06:38:01;99036.50;;;-3.58;55.64
75039;BME280;63609;49.992;14.512;2023-03-01T06:40:32;99029.31;;;-3.48;56.13
75039;BME280;63609;49.992;14.512;2023-03-01T06:43:01;99021.66;;;-3.23;53.41
75039;BME280;63609;49.992;14.512;2023-03-01T06:45:29;99028.75;;;-3.28;53.95
75039;BME280;63609;49.992;14.512;2023-03-01T06:48:06;99020.03;;;-2.96;54.66
75039;BME280;63609;49.992;14.512;2023-03-01T06:50:34;99027.00;;;-2.67;54.49
75039;BME280;63609;49.992;14.512;2023-03-01T06:53:02;99020.97;;;-2.40;54.58
75039;BME280;63609;49.992;14.512;2023-03-01T06:55:32;99027.16;;;-2.14;53.70
75039;BME280;63609;49.992;14.512;2023-03-01T06:58:00;99025.69;;;-2.24;51.87
75039;BME280;63609;49.992;14.512;2023-03-01T07:00:31;99034.34;;;-2.21;52.35
75039;BME280;63609;49.992;14.512;2023-03-01T07:03:00;99031.81;;;-1.97;52.98
75039;BME280;63609;49.992;14.512;2023-03-01T07:05:30;99028.41;;;-2.00;52.74
75039;BME280;63609;49.992;14.512;2023-03-01T07:08:06;99021.97;;;-1.89;52.73
75039;BME280;63609;49.992;14.512;2023-03-01T07:10:35;99030.22;;;-1.75;51.87
75039;BME280;63609;49.992;14.512;2023-03-01T07:13:05;99036.72;;;-1.87;52.37
75039;BME280;63609;49.992;14.512;2023-03-01T07:15:33;99032.91;;;-1.77;53.09
75039;BME280;63609;49.992;14.512;2023-03-01T07:18:01;99042.06;;;-1.90;53.74
75039;BME280;63609;49.992;14.512;2023-03-01T07:20:28;99037.47;;;-1.57;53.20
75039;BME280;63609;49.992;14.512;2023-03-01T07:22:55;99044.31;;;-1.79;54.17
75039;BME280;63609;49.992;14.512;2023-03-01T07:25:25;99047.25;;;-1.88;54.89
75039;BME280;63609;49.992;14.512;2023-03-01T07:27:52;99043.78;;;-1.89;54.41
75039;BME280;63609;49.992;14.512;2023-03-01T07:30:20;99054.38;;;-1.93;54.41
75039;BME280;63609;49.992;14.512;2023-03-01T07:32:47;99053.09;;;-1.80;54.64
75039;BME280;63609;49.992;14.512;2023-03-01T07:35:14;99052.44;;;-1.87;55.10
75039;BME280;63609;49.992;14.512;2023-03-01T07:37:41;99045.19;;;-1.79;55.15
75039;BME280;63609;49.992;14.512;2023-03-01T07:40:09;99038.63;;;-1.65;54.67
75039;BME280;63609;49.992;14.512;2023-03-01T07:42:40;99042.25;;;-1.70;54.61
75039;BME280;63609;49.992;14.512;2023-03-01T07:45:11;99051.91;;;-1.72;55.14
75039;BME280;63609;49.992;14.512;2023-03-01T07:47:39;99048.28;;;-1.67;54.78
75039;BME280;63609;49.992;14.512;2023-03-01T07:50:07;99048.44;;;-1.72;55.28
75039;BME280;63609;49.992;14.512;2023-03-01T07:52:34;99044.22;;;-1.50;54.88
75039;BME280;63609;49.992;14.512;2023-03-01T07:55:01;99052.22;;;-1.54;54.78
75039;BME280;63609;49.992;14.512;2023-03-01T07:57:28;99049.81;;;-1.35;54.28
75039;BME280;63609;49.992;14.512;2023-03-01T07:59:54;99050.06;;;-1.68;55.05
75039;BME280;63609;49.992;14.512;2023-03-01T08:02:21;99047.69;;;-1.49;54.72
75039;BME280;63609;49.992;14.512;2023-03-01T08:04:48;99042.56;;;-0.79;53.36
75039;BME280;63609;49.992;14.512;2023-03-01T08:07:18;99046.56;;;-0.94;53.90
75039;BME280;63609;49.992;14.512;2023-03-01T08:09:45;99040.44;;;-0.93;53.60
75039;BME280;63609;49.992;14.512;2023-03-01T08:12:12;99034.94;;;-0.85;53.92
75039;BME280;63609;49.992;14.512;2023-03-01T08:14:39;99030.78;;;-1.16;54.29
75039;BME280;63609;49.992;14.512;2023-03-01T08:17:06;99031.28;;;-0.81;53.53
75039;BME280;63609;49.992;14.512;2023-03-01T08:19:33;99028.19;;;-0.46;53.43
75039;BME280;63609;49.992;14.512;2023-03-01T08:22:02;99031.03;;;-0.52;52.31
75039;BME280;63609;49.992;14.512;2023-03-01T08:24:29;99031.72;;;-0.70;53.00
75039;BME280;63609;49.992;14.512;2023-03-01T08:26:57;99031.22;;;-0.56;53.13
75039;BME280;63609;49.992;14.512;2023-03-01T08:29:26;99029.59;;;-0.37;52.52
75039;BME280;63609;49.992;14.512;2023-03-01T08:31:52;99039.53;;;0.21;51.57
75039;BME280;63609;49.992;14.512;2023-03-01T08:34:20;99037.31;;;0.32;51.03
75039;BME280;63609;49.992;14.512;2023-03-01T08:36:47;99026.84;;;0.52;50.61
75039;BME280;63609;49.992;14.512;2023-03-01T08:39:18;99036.03;;;0.62;49.73
75039;BME280;63609;49.992;14.512;2023-03-01T08:41:47;99030.47;;;0.49;50.43
75039;BME280;63609;49.992;14.512;2023-03-01T08:44:19;99027.97;;;0.87;50.47
75039;BME280;63609;49.992;14.512;2023-03-01T08:46:47;99029.09;;;0.81;49.41
75039;BME280;63609;49.992;14.512;2023-03-01T08:49:18;99026.97;;;0.69;50.06
75039;BME280;63609;49.992;14.512;2023-03-01T08:51:46;99025.38;;;1.06;48.82
75039;BME280;63609;49.992;14.512;2023-03-01T08:54:19;99029.84;;;1.43;48.03
75039;BME280;63609;49.992;14.512;2023-03-01T08:56:48;99012.72;;;1.72;47.12
75039;BME280;63609;49.992;14.512;2023-03-01T08:59:16;99017.72;;;1.95;46.95
75039;BME280;63609;49.992;14.512;2023-03-01T09:01:44;99008.34;;;1.90;47.37
75039;BME280;63609;49.992;14.512;2023-03-01T09:04:14;98991.13;;;1.83;47.00
75039;BME280;63609;49.992;14.512;2023-03-01T09:06:41;98993.84;;;1.98;47.15
75039;BME280;63609;49.992;14.512;2023-03-01T09:09:14;98997.16;;;2.21;46.13
75039;BME280;63609;49.992;14.512;2023-03-01T09:11:45;99001.50;;;2.39;45.31
75039;BME280;63609;49.992;14.512;2023-03-01T09:14:14;98995.91;;;2.62;45.21
75039;BME280;63609;49.992;14.512;2023-03-01T09:16:43;98999.09;;;2.52;45.73
75039;BME280;63609;49.992;14.512;2023-03-01T09:19:10;98991.13;;;3.04;44.25
75039;BME280;63609;49.992;14.512;2023-03-01T09:21:38;98995.22;;;2.76;44.80
75039;BME280;63609;49.992;14.512;2023-03-01T09:24:12;98982.63;;;2.81;43.97
75039;BME280;63609;49.992;14.512;2023-03-01T09:26:40;98975.94;;;2.91;43.57
75039;BME280;63609;49.992;14.512;2023-03-01T09:29:07;98977.38;;;3.30;42.25
75039;BME280;63609;49.992;14.512;2023-03-01T09:31:36;98979.31;;;3.11;43.50
75039;BME280;63609;49.992;14.512;2023-03-01T09:34:03;98963.94;;;3.35;41.93
75039;BME280;63609;49.992;14.512;2023-03-01T09:36:31;98969.19;;;3.19;42.08
75039;BME280;63609;49.992;14.512;2023-03-01T09:38:59;98973.75;;;3.64;41.13
75039;BME280;63609;49.992;14.512;2023-03-01T09:44:01;98973.22;;;4.05;40.01
75039;BME280;63609;49.992;14.512;2023-03-01T09:46:36;98967.59;;;4.11;39.95
75039;BME280;63609;49.992;14.512;2023-03-01T09:49:10;98959.09;;;4.50;39.08
75039;BME280;63609;49.992;14.512;2023-03-01T09:51:39;98960.97;;;4.34;39.45
75039;BME280;63609;49.992;14.512;2023-03-01T09:54:06;98956.72;;;4.31;39.80
75039;BME280;63609;49.992;14.512;2023-03-01T09:57:08;98962.50;;;4.38;38.72
75039;BME280;63609;49.992;14.512;2023-03-01T09:59:59;98960.53;;;4.26;37.77
75039;BME280;63609;49.992;14.512;2023-03-01T10:02:58;98954.06;;;5.04;37.90
75039;BME280;63609;49.992;14.512;2023-03-01T10:05:50;98951.91;;;4.96;37.38
75039;BME280;63609;49.992;14.512;2023-03-01T10:08:38;98956.69;;;4.61;37.26
75039;BME280;63609;49.992;14.512;2023-03-01T10:14:39;98945.16;;;5.19;37.50
75039;BME280;63609;49.992;14.512;2023-03-01T10:17:34;98936.69;;;5.00;37.69
75039;BME280;63609;49.992;14.512;2023-03-01T10:22:51;98935.81;;;5.69;36.76
75039;BME280;63609;49.992;14.512;2023-03-01T10:27:53;98922.69;;;5.12;36.67
75039;BME280;63609;49.992;14.512;2023-03-01T10:30:50;98938.88;;;4.93;37.53
75039;BME280;63609;49.992;14.512;2023-03-01T10:33:22;98927.19;;;5.24;36.94
75039;BME280;63609;49.992;14.512;2023-03-01T10:35:50;98928.88;;;5.25;37.32
75039;BME280;63609;49.992;14.512;2023-03-01T10:38:18;98920.50;;;5.18;37.74
75039;BME280;63609;49.992;14.512;2023-03-01T10:40:54;98923.28;;;5.85;36.17
75039;BME280;63609;49.992;14.512;2023-03-01T10:43:21;98915.19;;;6.01;36.24
75039;BME280;63609;49.992;14.512;2023-03-01T10:45:53;98915.59;;;5.95;36.42
75039;BME280;63609;49.992;14.512;2023-03-01T10:48:24;98915.09;;;6.15;35.47
75039;BME280;63609;49.992;14.512;2023-03-01T10:53:42;98903.59;;;6.80;34.15
75039;BME280;63609;49.992;14.512;2023-03-01T10:56:11;98905.59;;;6.25;35.70
75039;BME280;63609;49.992;14.512;2023-03-01T10:59:04;98890.44;;;6.53;34.59
75039;BME280;63609;49.992;14.512;2023-03-01T11:01:34;98895.63;;;6.54;34.49
75039;BME280;63609;49.992;14.512;2023-03-01T11:06:34;98883.75;;;6.98;34.29
75039;BME280;63609;49.992;14.512;2023-03-01T11:09:22;98886.50;;;6.46;34.20
75039;BME280;63609;49.992;14.512;2023-03-01T11:11:54;98883.41;;;5.33;36.48
75039;BME280;63609;49.992;14.512;2023-03-01T11:14:24;98882.16;;;6.70;33.73
75039;BME280;63609;49.992;14.512;2023-03-01T11:17:05;98871.44;;;6.97;33.93
75039;BME280;63609;49.992;14.512;2023-03-01T11:19:35;98870.41;;;7.36;33.22
75039;BME280;63609;49.992;14.512;2023-03-01T11:22:16;98859.06;;;7.21;33.08
75039;BME280;63609;49.992;14.512;2023-03-01T11:24:50;98868.66;;;6.98;34.21
75039;BME280;63609;49.992;14.512;2023-03-01T11:27:40;98862.56;;;7.09;35.08
75039;BME280;63609;49.992;14.512;2023-03-01T11:35:47;98851.81;;;7.60;33.64
75039;BME280;63609;49.992;14.512;2023-03-01T11:38:24;98851.22;;;7.07;33.76
75039;BME280;63609;49.992;14.512;2023-03-01T11:40:59;98853.81;;;7.20;33.30
75039;BME280;63609;49.992;14.512;2023-03-01T11:46:27;98852.94;;;6.95;34.72
75039;BME280;63609;49.992;14.512;2023-03-01T12:12:18;98825.88;;;7.63;33.76
75039;BME280;63609;49.992;14.512;2023-03-01T12:14:55;98822.75;;;7.46;34.45
75039;BME280;63609;49.992;14.512;2023-03-01T12:28:46;98797.97;;;8.15;32.23
75039;BME280;63609;49.992;14.512;2023-03-01T12:31:57;98786.81;;;7.88;33.10
75039;BME280;63609;49.992;14.512;2023-03-01T12:39:51;98785.19;;;7.26;33.82
75039;BME280;63609;49.992;14.512;2023-03-01T12:50:57;98784.00;;;8.92;30.89
75039;BME280;63609;49.992;14.512;2023-03-01T12:53:28;98776.28;;;8.88;31.27
75039;BME280;63609;49.992;14.512;2023-03-01T12:56:10;98770.19;;;8.31;32.38
75039;BME280;63609;49.992;14.512;2023-03-01T12:58:46;98776.25;;;8.66;31.07
75039;BME280;63609;49.992;14.512;2023-03-01T13:13:19;98760.31;;;8.55;30.68
75039;BME280;63609;49.992;14.512;2023-03-01T13:15:47;98758.34;;;8.46;30.89
75039;BME280;63609;49.992;14.512;2023-03-01T13:20:55;98754.84;;;8.23;31.33
75039;BME280;63609;49.992;14.512;2023-03-01T13:23:36;98752.75;;;8.15;31.58
75039;BME280;63609;49.992;14.512;2023-03-01T13:26:17;98749.03;;;8.63;31.02
75039;BME280;63609;49.992;14.512;2023-03-01T13:28:52;98758.72;;;8.19;31.68
75039;BME280;63609;49.992;14.512;2023-03-01T13:33:52;98742.25;;;8.36;31.38
75039;BME280;63609;49.992;14.512;2023-03-01T13:46:59;98750.25;;;8.58;31.02
75039;BME280;63609;49.992;14.512;2023-03-01T13:49:52;98755.28;;;7.94;32.70
75039;BME280;63609;49.992;14.512;2023-03-01T13:52:30;98759.91;;;8.37;31.20
75039;BME280;63609;49.992;14.512;2023-03-01T13:54:59;98747.94;;;8.65;31.09
75039;BME280;63609;49.992;14.512;2023-03-01T13:57:33;98750.38;;;8.79;30.87
75039;BME280;63609;49.992;14.512;2023-03-01T14:00:01;98747.09;;;8.20;31.16
75039;BME280;63609;49.992;14.512;2023-03-01T14:02:30;98746.59;;;8.82;31.29
75039;BME280;63609;49.992;14.512;2023-03-01T14:04:59;98743.47;;;8.43;30.93
75039;BME280;63609;49.992;14.512;2023-03-01T14:07:28;98749.88;;;8.41;30.41
75039;BME280;63609;49.992;14.512;2023-03-01T14:10:00;98746.13;;;8.32;31.06
75039;BME280;63609;49.992;14.512;2023-03-01T14:12:37;98744.56;;;8.63;30.67
75039;BME280;63609;49.992;14.512;2023-03-01T14:15:33;98741.28;;;8.82;30.90
75039;BME280;63609;49.992;14.512;2023-03-01T14:18:07;98748.56;;;8.57;30.81
75039;BME280;63609;49.992;14.512;2023-03-01T14:20:48;98735.22;;;8.80;30.53
75039;BME280;63609;49.992;14.512;2023-03-01T14:23:22;98735.19;;;9.02;30.06
75039;BME280;63609;49.992;14.512;2023-03-01T14:25:57;98732.59;;;8.57;30.84
75039;BME280;63609;49.992;14.512;2023-03-01T14:28:31;98729.06;;;8.79;30.63
75039;BME280;63609;49.992;14.512;2023-03-01T14:31:35;98735.25;;;8.46;30.83
75039;BME280;63609;49.992;14.512;2023-03-01T14:34:23;98736.81;;;8.94;30.52
75039;BME280;63609;49.992;14.512;2023-03-01T14:36:53;98730.75;;;8.92;31.17
75039;BME280;63609;49.992;14.512;2023-03-01T14:39:25;98735.84;;;8.72;31.16
75039;BME280;63609;49.992;14.512;2023-03-01T14:41:55;98726.06;;;8.62;31.18
75039;BME280;63609;49.992;14.512;2023-03-01T14:44:28;98722.25;;;8.98;30.42
75039;BME280;63609;49.992;14.512;2023-03-01T14:46:56;98723.44;;;9.05;30.83
75039;BME280;63609;49.992;14.512;2023-03-01T14:49:27;98724.44;;;9.36;29.74
75039;BME280;63609;49.992;14.512;2023-03-01T14:54:28;98720.00;;;9.25;30.44
75039;BME280;63609;49.992;14.512;2023-03-01T14:57:00;98718.81;;;9.18;30.50
75039;BME280;63609;49.992;14.512;2023-03-01T14:59:28;98733.00;;;9.18;30.16
75039;BME280;63609;49.992;14.512;2023-03-01T15:01:57;98736.56;;;9.29;30.17
75039;BME280;63609;49.992;14.512;2023-03-01T15:04:27;98735.41;;;9.10;30.43
75039;BME280;63609;49.992;14.512;2023-03-01T15:06:57;98731.66;;;9.13;29.93
75039;BME280;63609;49.992;14.512;2023-03-01T15:09:34;98736.59;;;8.52;30.75